LFSB METAR and TAF | Updated Today

LFSB METAR

EuroAirport Basel-Mulhouse-Freiburg Airport

Observation time: 5 min. ago

LFSB 061930Z AUTO 07007KT 020V100 9999 BKN033 OVC040 02/M03 Q1034 NOSIG

Need help? Read our tutorial on how to read METARs or read the parsed version below.

EuroAirport Basel-Mulhouse-Freiburg Airport (LFSB) METAR

  • Weather conditions on Mon, 06 Feb 2023 19:30:00 +0000 (5 min. ago):
  • Present conditions: Dry
  • Clouds: Broken sky at 1006 meters; overcast sky at 1219 meters
  • Visibility: Greater than 10 km
  • Wind: 70 degrees at 7 knots
  • Temperature: 2 celsius
  • Dew point: -3 celsius
  • Pressure: 1034 millibars
  • Remarks: None


Useful to know...

LFSB TAF

EuroAirport Basel-Mulhouse-Freiburg Airport

TAF LFSB 061700Z 0618/0718 36008KT 9999 BKN035
Observation time: 2:35 hr. ago
Need help? Read our tutorial on how to read TAFs or read the parsed version below.

Parsed version of TAF for EuroAirport Basel-Mulhouse-Freiburg Airport (LFSB)

  • From 06 February at 18:00 UTC, to day 07 of the month at 18:00 UTC
  • Clouds: Broken sky at 1067 meters
  • Visibility: Greater than 10 km
  • Wind: 360 degrees at 8